Time;durP1;ratioP1;P1;durP2;ratioP2;P2;SDS_P1;SDS_P2;PMS_P1;PMS_P2;Temp;Humidity;BMP_temperature;BMP_pressure;BME280_temperature;BME280_humidity;BME280_pressure;Samples;Min_cycle;Max_cycle;Signal;HPM_P1;HPM_P2
2021/12/14 00:03:46;;;;;;;67.57;19.23;;;;;;;;;;8269613;28;20050;-72
2021/12/14 00:07:51;;;;;;;44.88;18.02;;;;;;;;;;8269399;28;20108;-77
2021/12/14 00:12:11;;;;;;;51.95;16.40;;;;;;;;;;8269360;28;20058;-74
2021/12/14 00:16:15;;;;;;;52.22;17.80;;;;;;;;;;8268017;28;20449;-72
2021/12/14 00:20:23;;;;;;;45.60;17.80;;;;;;;;;;8269023;28;20047;-74
2021/12/14 00:24:27;;;;;;;46.20;18.63;;;;;;;;;;8268959;28;20149;-75
2021/12/14 00:28:34;;;;;;;45.83;20.13;;;;;;;;;;8268190;28;20050;-79
2021/12/14 00:32:38;;;;;;;58.25;24.17;;;;;;;;;;8268707;28;20441;-72
2021/12/14 00:36:41;;;;;;;66.20;24.52;;;;;;;;;;8268602;28;20046;-72
2021/12/14 00:40:49;;;;;;;61.30;24.02;;;;;;;;;;8268480;28;20058;-71
2021/12/14 00:44:53;;;;;;;46.08;18.02;;;;;;;;;;8267849;28;20458;-76
2021/12/14 00:48:56;;;;;;;52.17;19.42;;;;;;;;;;8268019;28;20265;-72
2021/12/14 00:53:00;;;;;;;42.05;18.52;;;;;;;;;;8267688;28;20105;-72
2021/12/14 00:57:06;;;;;;;88.32;27.30;;;;;;;;;;8267470;28;20100;-78
2021/12/14 01:01:13;;;;;;;62.83;27.30;;;;;;;;;;8267902;28;20502;-77
2021/12/14 01:05:21;;;;;;;42.22;19.35;;;;;;;;;;8267285;28;20395;-74
2021/12/14 01:09:30;;;;;;;53.63;20.35;;;;;;;;;;8266852;28;20062;-72
2021/12/14 01:13:42;;;;;;;53.90;17.38;;;;;;;;;;8267562;28;20047;-72
2021/12/14 01:17:55;;;;;;;74.25;23.70;;;;;;;;;;8266813;28;20076;-72
2021/12/14 01:22:32;;;;;;;100.93;28.85;;;;;;;;;;8266741;28;20108;-77
2021/12/14 01:26:39;;;;;;;69.00;27.25;;;;;;;;;;8267934;28;20522;-72
2021/12/14 01:30:55;;;;;;;62.88;24.95;;;;;;;;;;8266916;28;20050;-72
2021/12/14 01:34:58;;;;;;;59.13;24.15;;;;;;;;;;8266419;28;20471;-72
2021/12/14 01:39:22;;;;;;;95.70;34.95;;;;;;;;;;8266688;28;20073;-80
2021/12/14 01:43:30;;;;;;;62.78;25.45;;;;;;;;;;8266121;28;20066;-72
2021/12/14 01:47:39;;;;;;;74.28;27.58;;;;;;;;;;8266199;28;20121;-76
2021/12/14 01:51:46;;;;;;;67.97;24.98;;;;;;;;;;8265899;28;20058;-72
2021/12/14 01:55:53;;;;;;;75.78;28.25;;;;;;;;;;8265995;28;20097;-72
2021/12/14 01:59:58;;;;;;;65.22;25.20;;;;;;;;;;8266283;28;20106;-72
2021/12/14 02:04:10;;;;;;;64.80;20.88;;;;;;;;;;8266153;28;20482;-71
2021/12/14 02:08:19;;;;;;;47.25;18.95;;;;;;;;;;8265449;28;20505;-77
2021/12/14 02:12:25;;;;;;;69.63;25.63;;;;;;;;;;8265700;28;20053;-73
2021/12/14 02:16:28;;;;;;;45.47;18.10;;;;;;;;;;8265488;28;20073;-72
2021/12/14 02:20:37;;;;;;;63.67;20.75;;;;;;;;;;8265360;28;20085;-72
2021/12/14 02:24:49;;;;;;;66.60;22.95;;;;;;;;;;8265360;28;20046;-78
2021/12/14 02:28:55;;;;;;;85.38;34.75;;;;;;;;;;8265717;28;20388;-76
2021/12/14 02:32:59;;;;;;;66.63;23.63;;;;;;;;;;8265208;28;20054;-72
2021/12/14 02:37:02;;;;;;;65.75;21.85;;;;;;;;;;8265693;28;20403;-75
2021/12/14 02:41:09;;;;;;;54.85;20.30;;;;;;;;;;8269258;28;20054;-72
2021/12/14 02:45:12;;;;;;;62.97;23.00;;;;;;;;;;8271506;28;20058;-73
2021/12/14 02:49:21;;;;;;;46.17;17.58;;;;;;;;;;8271739;28;20398;-72
2021/12/14 02:53:24;;;;;;;69.47;26.90;;;;;;;;;;8272253;28;20046;-76
2021/12/14 02:57:32;;;;;;;56.20;20.92;;;;;;;;;;8271520;28;20046;-72
2021/12/14 03:01:36;;;;;;;58.58;21.02;;;;;;;;;;8271087;28;20482;-76
2021/12/14 03:05:43;;;;;;;59.83;20.73;;;;;;;;;;8270856;28;20096;-71
2021/12/14 03:09:57;;;;;;;48.05;17.55;;;;;;;;;;8254614;28;20145;-72
2021/12/14 03:14:03;;;;;;;58.22;21.48;;;;;;;;;;8244175;28;20400;-72
2021/12/14 03:18:11;;;;;;;56.97;20.35;;;;;;;;;;8245309;28;20494;-75
2021/12/14 03:22:22;;;;;;;49.40;19.80;;;;;;;;;;8256380;28;20050;-77
2021/12/14 03:26:28;;;;;;;57.60;23.42;;;;;;;;;;8253885;28;20047;-76
2021/12/14 03:30:37;;;;;;;59.53;21.10;;;;;;;;;;8252868;28;20050;-74
2021/12/14 03:34:41;;;;;;;57.97;21.23;;;;;;;;;;8236073;28;20043;-73
2021/12/14 03:38:48;;;;;;;47.40;19.83;;;;;;;;;;8235278;28;20046;-72
2021/12/14 03:42:51;;;;;;;51.53;22.65;;;;;;;;;;8236541;28;20101;-72
2021/12/14 03:46:58;;;;;;;55.25;21.48;;;;;;;;;;8237456;28;20057;-73
2021/12/14 03:51:02;;;;;;;59.10;23.02;;;;;;;;;;8235863;28;20065;-76
2021/12/14 03:55:13;;;;;;;56.83;22.10;;;;;;;;;;8237916;28;20047;-77
2021/12/14 03:59:16;;;;;;;42.15;16.95;;;;;;;;;;8237175;28;20186;-79
2021/12/14 04:03:22;;;;;;;42.05;18.80;;;;;;;;;;8237955;28;20463;-76
2021/12/14 04:07:25;;;;;;;46.90;18.75;;;;;;;;;;8237310;28;20043;-78
2021/12/14 04:11:28;;;;;;;54.47;19.02;;;;;;;;;;8236569;28;20062;-76
2021/12/14 04:15:32;;;;;;;46.35;17.52;;;;;;;;;;8237063;28;20131;-78
2021/12/14 04:19:39;;;;;;;48.13;16.27;;;;;;;;;;8236540;28;20046;-73
2021/12/14 04:23:46;;;;;;;46.05;17.75;;;;;;;;;;8236337;28;20137;-76
2021/12/14 04:27:51;;;;;;;44.33;16.20;;;;;;;;;;8236654;28;20042;-72
2021/12/14 04:31:54;;;;;;;41.45;16.90;;;;;;;;;;8236477;28;20145;-72
2021/12/14 04:36:02;;;;;;;52.00;17.58;;;;;;;;;;8236012;28;20046;-71
2021/12/14 04:40:19;;;;;;;56.00;20.17;;;;;;;;;;8235924;28;20054;-77
2021/12/14 04:53:28;;;;;;;54.20;21.17;;;;;;;;;;8235431;28;20487;-72
2021/12/14 04:57:33;;;;;;;57.42;23.00;;;;;;;;;;8235239;28;20055;-73
2021/12/14 05:01:44;;;;;;;60.17;21.83;;;;;;;;;;8235335;28;20046;-73
2021/12/14 05:05:50;;;;;;;49.38;18.23;;;;;;;;;;8235080;28;20061;-77
2021/12/14 05:09:55;;;;;;;62.17;25.30;;;;;;;;;;8234761;28;20117;-72
2021/12/14 05:14:05;;;;;;;77.57;30.02;;;;;;;;;;8235094;28;20089;-73
2021/12/14 05:18:13;;;;;;;75.75;27.48;;;;;;;;;;8235045;28;20047;-72
2021/12/14 05:22:18;;;;;;;66.70;27.40;;;;;;;;;;8234849;28;20074;-72
2021/12/14 05:26:24;;;;;;;72.70;26.42;;;;;;;;;;8234492;28;20112;-73
2021/12/14 05:30:29;;;;;;;204.75;46.22;;;;;;;;;;8234190;28;20073;-73
2021/12/14 05:34:33;;;;;;;84.47;30.08;;;;;;;;;;8234356;28;20049;-71
2021/12/14 05:38:48;;;;;;;118.93;45.47;;;;;;;;;;8234546;28;20047;-73
2021/12/14 05:43:08;;;;;;;86.05;29.42;;;;;;;;;;8234070;28;20046;-73
2021/12/14 05:47:13;;;;;;;99.00;31.65;;;;;;;;;;8234454;28;20392;-73
2021/12/14 05:51:16;;;;;;;82.82;27.40;;;;;;;;;;8234239;28;20418;-78
2021/12/14 05:55:24;;;;;;;110.50;30.85;;;;;;;;;;8233754;28;20086;-73
2021/12/14 05:59:33;;;;;;;85.20;29.02;;;;;;;;;;8233664;28;20050;-77
2021/12/14 06:03:41;;;;;;;93.38;31.65;;;;;;;;;;8233668;28;20043;-79
2021/12/14 06:07:45;;;;;;;79.55;26.45;;;;;;;;;;8233487;28;20047;-72
2021/12/14 06:11:50;;;;;;;67.35;23.92;;;;;;;;;;8233645;28;20065;-72
2021/12/14 06:15:55;;;;;;;311.77;69.32;;;;;;;;;;8232717;28;20055;-72
2021/12/14 06:20:00;;;;;;;82.03;31.00;;;;;;;;;;8233405;28;20053;-77
2021/12/14 06:24:05;;;;;;;168.45;41.90;;;;;;;;;;8233691;28;20087;-73
2021/12/14 06:28:08;;;;;;;235.48;55.20;;;;;;;;;;8234123;28;20047;-75
2021/12/14 06:32:16;;;;;;;148.52;38.35;;;;;;;;;;8232965;28;20051;-72
2021/12/14 06:37:02;;;;;;;512.35;144.80;;;;;;;;;;8233509;28;20442;-75
2021/12/14 06:41:09;;;;;;;202.98;51.40;;;;;;;;;;8233259;28;20047;-74
2021/12/14 06:45:16;;;;;;;134.20;40.55;;;;;;;;;;8233482;28;20142;-78
2021/12/14 06:49:22;;;;;;;109.80;39.30;;;;;;;;;;8224989;28;20058;-77
2021/12/14 06:53:25;;;;;;;82.85;31.20;;;;;;;;;;8232542;28;20054;-77
2021/12/14 06:57:29;;;;;;;89.72;30.25;;;;;;;;;;8257230;28;20051;-73
2021/12/14 07:01:34;;;;;;;103.80;34.70;;;;;;;;;;8245220;28;20506;-73
2021/12/14 07:05:42;;;;;;;96.57;33.08;;;;;;;;;;8242895;28;20050;-73
2021/12/14 07:09:47;;;;;;;89.07;30.20;;;;;;;;;;8239550;28;20046;-73
2021/12/14 07:13:51;;;;;;;81.18;32.45;;;;;;;;;;8227826;28;20402;-73
2021/12/14 07:18:03;;;;;;;90.82;36.92;;;;;;;;;;8243647;28;20051;-77
2021/12/14 07:22:09;;;;;;;99.38;37.28;;;;;;;;;;8231308;28;20055;-73
2021/12/14 07:26:14;;;;;;;77.28;26.58;;;;;;;;;;8247915;28;20058;-72
2021/12/14 07:30:21;;;;;;;78.68;26.25;;;;;;;;;;8248038;28;20054;-73
2021/12/14 07:34:24;;;;;;;82.80;27.05;;;;;;;;;;8240073;28;20047;-74
2021/12/14 07:38:39;;;;;;;109.95;42.70;;;;;;;;;;8255520;28;20054;-76
2021/12/14 07:42:42;;;;;;;145.20;53.83;;;;;;;;;;8268078;28;20484;-73
2021/12/14 07:46:48;;;;;;;84.97;32.40;;;;;;;;;;8269912;28;20101;-74
2021/12/14 07:50:54;;;;;;;67.72;27.52;;;;;;;;;;8270332;28;20100;-77
2021/12/14 07:55:02;;;;;;;133.38;47.00;;;;;;;;;;8269351;28;20072;-74
2021/12/14 07:59:16;;;;;;;52.08;21.35;;;;;;;;;;8269773;28;20058;-75
2021/12/14 08:03:29;;;;;;;214.32;73.65;;;;;;;;;;8269711;28;20529;-73
2021/12/14 08:07:32;;;;;;;;;;;;;;;;;;8269525;28;20096;-73
2021/12/14 08:11:50;;;;;;;222.25;56.83;;;;;;;;;;8268647;28;19922;-75
2021/12/14 08:15:55;;;;;;;64.30;25.95;;;;;;;;;;8245517;28;20051;-73
2021/12/14 08:19:59;;;;;;;56.55;20.85;;;;;;;;;;8216093;28;20101;-74
2021/12/14 08:24:04;;;;;;;46.95;18.88;;;;;;;;;;8215179;28;20058;-73
2021/12/14 08:28:09;;;;;;;43.65;19.00;;;;;;;;;;8222074;28;20043;-73
2021/12/14 08:32:20;;;;;;;49.90;18.63;;;;;;;;;;8222824;28;20215;-72
2021/12/14 08:36:23;;;;;;;65.95;22.52;;;;;;;;;;8227350;28;20038;-74
2021/12/14 08:40:28;;;;;;;64.10;21.73;;;;;;;;;;8221436;28;20066;-73
2021/12/14 08:44:38;;;;;;;59.17;20.63;;;;;;;;;;8219648;28;20131;-74
2021/12/14 08:48:44;;;;;;;53.67;20.35;;;;;;;;;;8206156;28;20047;-74
2021/12/14 08:52:49;;;;;;;52.92;20.08;;;;;;;;;;8223509;28;20051;-73
2021/12/14 08:56:57;;;;;;;139.68;64.20;;;;;;;;;;8231427;28;20045;-73
2021/12/14 09:01:08;;;;;;;99.90;42.85;;;;;;;;;;8225562;28;20053;-74
2021/12/14 09:05:15;;;;;;;70.60;24.85;;;;;;;;;;8245094;28;20054;-74
2021/12/14 09:09:22;;;;;;;84.60;30.73;;;;;;;;;;8249519;28;20050;-73
2021/12/14 09:13:26;;;;;;;79.82;27.40;;;;;;;;;;8235835;28;20525;-77
2021/12/14 09:17:31;;;;;;;85.95;31.35;;;;;;;;;;8223589;28;20535;-72
2021/12/14 09:21:42;;;;;;;81.10;30.45;;;;;;;;;;8228467;28;20053;-77
2021/12/14 09:25:46;;;;;;;177.07;58.70;;;;;;;;;;8230315;28;20051;-74
2021/12/14 09:29:51;;;;;;;90.22;29.58;;;;;;;;;;8224202;28;20243;-74
2021/12/14 09:33:59;;;;;;;92.15;31.70;;;;;;;;;;8244409;28;20061;-73
2021/12/14 09:38:06;;;;;;;129.10;40.17;;;;;;;;;;8234925;28;20101;-73
2021/12/14 09:42:14;;;;;;;121.40;45.83;;;;;;;;;;8215639;28;20042;-73
2021/12/14 09:46:18;;;;;;;104.22;33.03;;;;;;;;;;8218320;28;20130;-75
2021/12/14 09:50:26;;;;;;;76.47;26.45;;;;;;;;;;8229172;28;20062;-74
2021/12/14 09:54:30;;;;;;;83.75;30.15;;;;;;;;;;8199750;28;20059;-73
2021/12/14 09:58:39;;;;;;;75.00;26.70;;;;;;;;;;8249727;28;20479;-77
2021/12/14 10:02:45;;;;;;;76.03;27.17;;;;;;;;;;8226508;28;20043;-72
2021/12/14 10:07:03;;;;;;;85.97;34.33;;;;;;;;;;8255833;28;20502;-73
2021/12/14 10:11:22;;;;;;;76.88;30.65;;;;;;;;;;8262536;28;20572;-73
2021/12/14 10:15:47;;;;;;;86.07;32.60;;;;;;;;;;8247338;28;20133;-75
2021/12/14 10:20:07;;;;;;;84.03;26.05;;;;;;;;;;8203955;28;20074;-73
2021/12/14 10:24:35;;;;;;;66.00;24.80;;;;;;;;;;8218063;28;20047;-74
2021/12/14 10:28:51;;;;;;;68.53;25.25;;;;;;;;;;8223253;28;20050;-75
2021/12/14 10:33:08;;;;;;;75.65;26.42;;;;;;;;;;8217613;28;20451;-73
2021/12/14 10:37:39;;;;;;;71.82;25.20;;;;;;;;;;8232778;28;20047;-74
2021/12/14 10:46:25;;;;;;;139.82;44.15;;;;;;;;;;8218555;28;20065;-74
2021/12/14 10:50:42;;;;;;;91.85;27.48;;;;;;;;;;8232312;28;20055;-73
2021/12/14 10:54:54;;;;;;;131.98;42.35;;;;;;;;;;8229170;28;20050;-72
2021/12/14 10:59:10;;;;;;;160.30;50.75;;;;;;;;;;8220919;28;20063;-73
2021/12/14 11:03:22;;;;;;;147.93;47.70;;;;;;;;;;8234506;28;20046;-73
2021/12/14 11:07:37;;;;;;;77.65;26.30;;;;;;;;;;8237544;28;20061;-74
2021/12/14 11:11:50;;;;;;;86.30;26.27;;;;;;;;;;8237207;28;20502;-73
2021/12/14 11:16:01;;;;;;;84.05;31.05;;;;;;;;;;8237715;28;20522;-73
2021/12/14 11:20:13;;;;;;;83.07;24.60;;;;;;;;;;8231581;28;20046;-72
2021/12/14 11:24:21;;;;;;;75.63;26.20;;;;;;;;;;8269140;28;20101;-74
2021/12/14 11:28:36;;;;;;;122.00;38.08;;;;;;;;;;8241532;28;20563;-73
2021/12/14 11:32:47;;;;;;;93.65;28.90;;;;;;;;;;8240089;28;20046;-72
2021/12/14 11:37:02;;;;;;;75.47;25.83;;;;;;;;;;8252351;28;20104;-73
2021/12/14 11:41:28;;;;;;;105.07;31.77;;;;;;;;;;8231643;28;20314;-73
2021/12/14 11:45:41;;;;;;;113.97;39.30;;;;;;;;;;8229344;28;20043;-73
2021/12/14 11:50:00;;;;;;;90.75;30.25;;;;;;;;;;8242681;28;20046;-72
2021/12/14 11:54:13;;;;;;;195.70;57.97;;;;;;;;;;8239155;28;20511;-73
2021/12/14 11:58:30;;;;;;;94.57;31.25;;;;;;;;;;8235405;28;20099;-72
2021/12/14 12:02:43;;;;;;;105.80;35.63;;;;;;;;;;8228534;28;20043;-73
2021/12/14 12:11:16;;;;;;;190.52;57.88;;;;;;;;;;8229449;28;20586;-73
2021/12/14 12:15:25;;;;;;;113.65;34.47;;;;;;;;;;8216780;28;20047;-75
2021/12/14 12:19:31;;;;;;;108.70;35.10;;;;;;;;;;8229447;28;20086;-73
2021/12/14 12:23:44;;;;;;;100.18;32.40;;;;;;;;;;8224053;28;20051;-73
2021/12/14 12:27:52;;;;;;;91.82;27.45;;;;;;;;;;8219876;28;20058;-72
2021/12/14 12:32:07;;;;;;;99.85;31.70;;;;;;;;;;8235367;28;20059;-72
2021/12/14 12:36:15;;;;;;;90.80;26.70;;;;;;;;;;8262839;28;20046;-77
2021/12/14 12:40:38;;;;;;;130.85;35.15;;;;;;;;;;8253650;28;20062;-74
2021/12/14 12:44:45;;;;;;;125.05;39.70;;;;;;;;;;8231593;28;20039;-73
2021/12/14 12:49:06;;;;;;;109.07;31.30;;;;;;;;;;8242855;28;20046;-75
2021/12/14 12:53:23;;;;;;;133.95;39.92;;;;;;;;;;8244301;28;20047;-74
2021/12/14 12:57:41;;;;;;;129.60;38.28;;;;;;;;;;8228697;28;20051;-73
2021/12/14 13:01:46;;;;;;;109.38;32.45;;;;;;;;;;8245872;28;20050;-73
2021/12/14 13:05:58;;;;;;;92.03;29.23;;;;;;;;;;8264726;28;20503;-73
2021/12/14 13:10:19;;;;;;;110.90;29.35;;;;;;;;;;8240808;28;20491;-74
2021/12/14 13:14:25;;;;;;;115.40;34.35;;;;;;;;;;8232363;28;20073;-73
2021/12/14 13:18:51;;;;;;;122.70;36.78;;;;;;;;;;8222177;28;20043;-73
2021/12/14 13:22:54;;;;;;;100.88;31.80;;;;;;;;;;8233078;28;20097;-72
2021/12/14 13:27:01;;;;;;;92.93;28.67;;;;;;;;;;8233030;28;20146;-73
2021/12/14 13:31:06;;;;;;;106.65;30.02;;;;;;;;;;8233969;28;20054;-73
2021/12/14 13:35:12;;;;;;;94.13;30.23;;;;;;;;;;8233662;28;20047;-72
2021/12/14 13:39:17;;;;;;;104.70;29.60;;;;;;;;;;8234063;28;20054;-72
2021/12/14 13:43:39;;;;;;;108.88;29.02;;;;;;;;;;8233974;28;20562;-73
2021/12/14 13:47:44;;;;;;;93.18;27.55;;;;;;;;;;8234591;28;20050;-73
2021/12/14 13:51:47;;;;;;;107.15;31.30;;;;;;;;;;8233734;28;20147;-72
2021/12/14 13:55:52;;;;;;;105.43;30.40;;;;;;;;;;8233696;28;20047;-72
2021/12/14 13:59:55;;;;;;;135.90;43.83;;;;;;;;;;8233587;28;20050;-72
2021/12/14 14:04:03;;;;;;;148.40;44.92;;;;;;;;;;8234067;28;20043;-74
2021/12/14 14:08:11;;;;;;;119.32;33.13;;;;;;;;;;8229231;28;20490;-76
2021/12/14 14:12:20;;;;;;;123.97;32.88;;;;;;;;;;8224171;28;20046;-74
2021/12/14 14:16:36;;;;;;;115.97;31.50;;;;;;;;;;8239694;28;20065;-74
2021/12/14 14:20:51;;;;;;;141.02;38.28;;;;;;;;;;8224389;28;20047;-74
2021/12/14 14:25:06;;;;;;;138.18;39.35;;;;;;;;;;8259062;28;20060;-74
2021/12/14 14:29:24;;;;;;;106.85;31.33;;;;;;;;;;8259495;28;20133;-73
2021/12/14 14:33:35;;;;;;;120.72;33.50;;;;;;;;;;8261455;28;20050;-73
2021/12/14 14:37:46;;;;;;;220.90;55.65;;;;;;;;;;8215779;28;20070;-73
2021/12/14 14:42:03;;;;;;;118.40;31.55;;;;;;;;;;8237505;28;20043;-73
2021/12/14 14:46:10;;;;;;;447.15;110.50;;;;;;;;;;8254377;28;20379;-74
2021/12/14 14:50:33;;;;;;;332.65;83.90;;;;;;;;;;8234559;28;20050;-73
2021/12/14 14:54:45;;;;;;;470.27;149.60;;;;;;;;;;8236101;28;20062;-73
2021/12/14 14:58:50;;;;;;;1128.18;352.80;;;;;;;;;;8230441;28;20061;-73
2021/12/14 15:03:02;;;;;;;1123.45;344.77;;;;;;;;;;8232943;28;20042;-73
2021/12/14 15:07:09;;;;;;;128.70;34.55;;;;;;;;;;8232407;28;20487;-74
2021/12/14 15:11:28;;;;;;;120.18;32.10;;;;;;;;;;8235967;28;20047;-73
2021/12/14 15:15:33;;;;;;;164.82;41.85;;;;;;;;;;8244772;28;20043;-72
2021/12/14 15:19:42;;;;;;;326.67;67.60;;;;;;;;;;8248295;28;20097;-74
2021/12/14 15:23:49;;;;;;;119.50;33.03;;;;;;;;;;8244613;28;20539;-73
2021/12/14 15:28:00;;;;;;;190.95;46.05;;;;;;;;;;8217867;28;20268;-74
2021/12/14 15:32:22;;;;;;;435.58;100.80;;;;;;;;;;8238803;28;20046;-73
2021/12/14 15:36:27;;;;;;;257.20;63.40;;;;;;;;;;8241236;28;20391;-73
2021/12/14 15:40:47;;;;;;;261.02;57.60;;;;;;;;;;8243573;28;20043;-78
2021/12/14 15:44:58;;;;;;;151.15;38.33;;;;;;;;;;8236819;28;20054;-73
2021/12/14 15:49:12;;;;;;;191.20;46.65;;;;;;;;;;8237421;28;20491;-72
2021/12/14 15:53:25;;;;;;;160.02;39.33;;;;;;;;;;8258230;28;20054;-72
2021/12/14 15:57:34;;;;;;;234.90;62.08;;;;;;;;;;8243011;28;20079;-73
2021/12/14 16:01:54;;;;;;;205.65;49.13;;;;;;;;;;8245463;28;20379;-73
2021/12/14 16:06:05;;;;;;;144.05;38.80;;;;;;;;;;8235389;28;20055;-73
2021/12/14 16:10:20;;;;;;;216.10;56.53;;;;;;;;;;8226402;28;20061;-74
2021/12/14 16:19:00;;;;;;;106.10;28.60;;;;;;;;;;8238324;28;20137;-73
2021/12/14 16:23:12;;;;;;;114.90;28.67;;;;;;;;;;8235313;28;20049;-71
2021/12/14 16:27:27;;;;;;;118.03;30.25;;;;;;;;;;8233543;28;20043;-72
2021/12/14 16:31:36;;;;;;;151.52;44.47;;;;;;;;;;8231956;28;20057;-74
2021/12/14 16:35:53;;;;;;;145.17;38.23;;;;;;;;;;8231438;28;20501;-75
2021/12/14 16:40:06;;;;;;;109.00;30.27;;;;;;;;;;8237354;28;20042;-73
2021/12/14 16:44:19;;;;;;;122.97;43.63;;;;;;;;;;8247987;28;20058;-72
2021/12/14 16:48:34;;;;;;;120.40;38.22;;;;;;;;;;8234949;28;20121;-75
2021/12/14 16:52:47;;;;;;;114.45;34.63;;;;;;;;;;8218836;28;20051;-77
2021/12/14 16:56:54;;;;;;;134.88;50.08;;;;;;;;;;8230413;28;20043;-72
2021/12/14 17:01:03;;;;;;;124.05;44.17;;;;;;;;;;8233332;28;20099;-73
2021/12/14 17:05:15;;;;;;;91.93;30.15;;;;;;;;;;8233780;28;20051;-72
2021/12/14 17:09:29;;;;;;;126.00;38.05;;;;;;;;;;8236997;28;20046;-73
2021/12/14 17:14:02;;;;;;;135.85;43.97;;;;;;;;;;8232682;28;20047;-72
2021/12/14 17:18:41;;;;;;;115.97;39.35;;;;;;;;;;8230354;28;20050;-72
2021/12/14 17:23:13;;;;;;;140.52;54.67;;;;;;;;;;8244775;28;20056;-73
2021/12/14 17:27:30;;;;;;;120.60;41.38;;;;;;;;;;8227515;28;20101;-73
2021/12/14 17:31:41;;;;;;;195.23;60.13;;;;;;;;;;8234079;28;20042;-72
2021/12/14 17:35:47;;;;;;;121.65;39.00;;;;;;;;;;8228856;28;20050;-73
2021/12/14 17:39:59;;;;;;;129.02;42.58;;;;;;;;;;8229645;28;20054;-74
2021/12/14 17:44:14;;;;;;;101.50;31.70;;;;;;;;;;8215064;28;20081;-73
2021/12/14 17:48:23;;;;;;;116.05;31.88;;;;;;;;;;8231126;28;20043;-73
2021/12/14 17:52:37;;;;;;;115.90;36.63;;;;;;;;;;8228351;28;20042;-73
2021/12/14 17:56:43;;;;;;;114.25;38.50;;;;;;;;;;8219314;28;20178;-73
2021/12/14 18:00:58;;;;;;;122.75;39.30;;;;;;;;;;8217271;28;20380;-72
2021/12/14 18:05:17;;;;;;;113.65;40.10;;;;;;;;;;8229349;28;20046;-73
2021/12/14 18:09:30;;;;;;;90.63;29.48;;;;;;;;;;8226727;28;20400;-72
2021/12/14 18:13:44;;;;;;;103.13;37.10;;;;;;;;;;8211899;28;20038;-73
2021/12/14 18:19:01;;;;;;;113.53;39.28;;;;;;;;;;8202785;28;20448;-74
2021/12/14 18:22:24;;;;;;;118.20;40.85;;;;;;;;;;8201115;28;20043;-73
2021/12/14 18:26:37;;;;;;;97.47;32.97;;;;;;;;;;8204569;28;20134;-78
2021/12/14 18:30:44;;;;;;;121.78;38.85;;;;;;;;;;8223677;28;20411;-74
2021/12/14 18:34:53;;;;;;;162.88;52.47;;;;;;;;;;8222837;28;20077;-75
2021/12/14 18:39:02;;;;;;;218.80;77.10;;;;;;;;;;8223815;28;20490;-73
2021/12/14 18:43:08;;;;;;;107.75;34.92;;;;;;;;;;8206345;28;20476;-74
2021/12/14 18:47:18;;;;;;;129.43;38.85;;;;;;;;;;8215165;28;20047;-73
2021/12/14 18:51:24;;;;;;;145.38;39.33;;;;;;;;;;8201072;29;20047;-72
2021/12/14 18:55:33;;;;;;;134.68;41.05;;;;;;;;;;8201153;29;20059;-73
2021/12/14 18:59:40;;;;;;;136.48;44.35;;;;;;;;;;8202493;28;20074;-72
2021/12/14 19:03:52;;;;;;;150.65;42.65;;;;;;;;;;8211604;28;20070;-73
2021/12/14 19:08:07;;;;;;;139.85;45.08;;;;;;;;;;8201856;28;20047;-76
2021/12/14 19:12:12;;;;;;;135.95;44.58;;;;;;;;;;8188171;28;20087;-73
2021/12/14 19:16:18;;;;;;;105.25;33.08;;;;;;;;;;8200651;28;20062;-74
2021/12/14 19:20:34;;;;;;;102.97;28.60;;;;;;;;;;8201017;28;20074;-73
2021/12/14 19:24:41;;;;;;;119.07;38.28;;;;;;;;;;8201092;28;20047;-74
2021/12/14 19:28:49;;;;;;;131.95;41.03;;;;;;;;;;8196386;28;20047;-74
2021/12/14 19:32:58;;;;;;;121.13;37.25;;;;;;;;;;8193590;28;20134;-75
2021/12/14 19:37:02;;;;;;;139.48;45.30;;;;;;;;;;8198692;28;20107;-79
2021/12/14 19:41:11;;;;;;;117.72;36.50;;;;;;;;;;8199938;28;20047;-75
2021/12/14 19:45:17;;;;;;;115.72;38.42;;;;;;;;;;8196277;28;20406;-73
2021/12/14 19:49:35;;;;;;;123.93;41.65;;;;;;;;;;8198149;28;20095;-76
2021/12/14 19:53:44;;;;;;;111.43;34.78;;;;;;;;;;8193686;28;20104;-74
2021/12/14 19:57:57;;;;;;;135.13;45.00;;;;;;;;;;8194781;28;20043;-73
2021/12/14 20:02:04;;;;;;;133.05;41.28;;;;;;;;;;8184416;28;20294;-73
2021/12/14 20:06:15;;;;;;;125.75;42.80;;;;;;;;;;8198688;28;20484;-73
2021/12/14 20:10:21;;;;;;;128.48;38.35;;;;;;;;;;8206894;28;20055;-73
2021/12/14 20:14:37;;;;;;;137.07;42.33;;;;;;;;;;8220745;28;20495;-73
2021/12/14 20:18:50;;;;;;;133.93;37.83;;;;;;;;;;8211959;28;20081;-73
2021/12/14 20:22:57;;;;;;;123.78;42.33;;;;;;;;;;8236217;28;20060;-73
2021/12/14 20:27:03;;;;;;;107.53;34.30;;;;;;;;;;8233063;28;20557;-73
2021/12/14 20:31:16;;;;;;;112.82;38.10;;;;;;;;;;8226768;28;20661;-74
2021/12/14 20:35:27;;;;;;;113.25;31.42;;;;;;;;;;8233858;28;20388;-74
2021/12/14 20:39:35;;;;;;;114.90;36.45;;;;;;;;;;8228316;28;20043;-73
2021/12/14 20:43:45;;;;;;;114.60;34.55;;;;;;;;;;8232654;28;20498;-72
2021/12/14 20:47:50;;;;;;;102.07;31.92;;;;;;;;;;8226377;28;20039;-73
2021/12/14 20:51:57;;;;;;;117.90;35.88;;;;;;;;;;8232948;28;20134;-73
2021/12/14 20:56:05;;;;;;;114.38;34.83;;;;;;;;;;8236058;28;20043;-73
2021/12/14 21:00:16;;;;;;;113.07;33.08;;;;;;;;;;8217718;28;20050;-73
2021/12/14 21:04:30;;;;;;;115.38;36.22;;;;;;;;;;8242490;28;20488;-73
2021/12/14 21:08:37;;;;;;;121.30;40.00;;;;;;;;;;8243224;28;20134;-73
2021/12/14 21:12:48;;;;;;;134.65;37.47;;;;;;;;;;8237608;28;20075;-72
2021/12/14 21:16:57;;;;;;;115.90;34.83;;;;;;;;;;8236026;28;20050;-73
2021/12/14 21:21:08;;;;;;;136.38;39.40;;;;;;;;;;8243666;28;20046;-74
2021/12/14 21:25:19;;;;;;;142.40;38.45;;;;;;;;;;8248283;28;20054;-73
2021/12/14 21:29:25;;;;;;;108.07;30.00;;;;;;;;;;8241816;28;20120;-74
2021/12/14 21:33:33;;;;;;;115.32;32.47;;;;;;;;;;8233124;28;20057;-74
2021/12/14 21:37:40;;;;;;;136.18;35.67;;;;;;;;;;8248530;28;20089;-73
2021/12/14 21:41:54;;;;;;;118.25;34.22;;;;;;;;;;8247344;28;20049;-72
2021/12/14 21:46:08;;;;;;;121.28;34.80;;;;;;;;;;8247668;28;20059;-73
2021/12/14 21:50:16;;;;;;;130.65;34.55;;;;;;;;;;8234655;28;20058;-73
2021/12/14 21:54:23;;;;;;;123.70;30.33;;;;;;;;;;8234320;28;20078;-73
2021/12/14 21:58:27;;;;;;;134.70;34.08;;;;;;;;;;8234246;28;20058;-73
2021/12/14 22:02:32;;;;;;;147.55;40.35;;;;;;;;;;8234342;28;20129;-72
2021/12/14 22:06:36;;;;;;;129.07;37.22;;;;;;;;;;8234208;28;20058;-72
2021/12/14 22:10:42;;;;;;;129.15;35.45;;;;;;;;;;8233292;28;20138;-72
2021/12/14 22:14:57;;;;;;;163.15;50.10;;;;;;;;;;8234198;28;20055;-72
2021/12/14 22:19:02;;;;;;;209.60;69.95;;;;;;;;;;8233883;28;20051;-72
2021/12/14 22:23:06;;;;;;;132.52;35.95;;;;;;;;;;8234050;28;20047;-72
2021/12/14 22:27:13;;;;;;;129.18;37.75;;;;;;;;;;8233837;28;20074;-73
2021/12/14 22:31:16;;;;;;;138.77;34.38;;;;;;;;;;8233196;28;20121;-73
2021/12/14 22:35:21;;;;;;;118.53;29.95;;;;;;;;;;8233626;28;20054;-73
2021/12/14 22:39:24;;;;;;;131.35;31.85;;;;;;;;;;8233282;28;20046;-72
2021/12/14 22:47:55;;;;;;;135.20;36.10;;;;;;;;;;8233433;28;20133;-73
2021/12/14 22:52:01;;;;;;;153.90;35.80;;;;;;;;;;8233717;28;20053;-73
2021/12/14 22:56:05;;;;;;;144.07;34.95;;;;;;;;;;8234547;28;20047;-71
2021/12/14 23:00:19;;;;;;;148.30;37.70;;;;;;;;;;8239929;28;20439;-72
2021/12/14 23:04:27;;;;;;;155.80;33.47;;;;;;;;;;8239487;28;20479;-72
2021/12/14 23:08:31;;;;;;;174.27;41.72;;;;;;;;;;8238690;28;20057;-72
2021/12/14 23:12:39;;;;;;;164.50;40.28;;;;;;;;;;8238941;28;20051;-72
2021/12/14 23:16:54;;;;;;;155.95;38.72;;;;;;;;;;8239503;28;20058;-72
2021/12/14 23:20:59;;;;;;;168.48;34.40;;;;;;;;;;8238476;28;20043;-73
2021/12/14 23:25:04;;;;;;;141.43;33.63;;;;;;;;;;8238411;28;20047;-73
2021/12/14 23:29:07;;;;;;;155.35;37.83;;;;;;;;;;8238240;28;20097;-73
2021/12/14 23:33:13;;;;;;;133.70;32.05;;;;;;;;;;8238392;28;20061;-73
2021/12/14 23:37:17;;;;;;;162.95;31.67;;;;;;;;;;8238650;28;20445;-73
2021/12/14 23:41:22;;;;;;;153.02;33.35;;;;;;;;;;8238123;28;20101;-73
2021/12/14 23:45:35;;;;;;;155.27;29.42;;;;;;;;;;8238018;28;20179;-76
2021/12/14 23:49:39;;;;;;;142.35;30.88;;;;;;;;;;8226299;28;20047;-72
2021/12/14 23:53:42;;;;;;;127.85;28.95;;;;;;;;;;8205496;29;20047;-73
2021/12/14 23:57:46;;;;;;;181.55;37.80;;;;;;;;;;8226480;28;20051;-72
